sensor_id;sensor_type;location;lat;lon;timestamp;P1;durP1;ratioP1;P2;durP2;ratioP2
25567;SDS011;13455;51.480;7.594;2023-06-26T00:01:57;7.60;;;5.85;;
25567;SDS011;13455;51.480;7.594;2023-06-26T00:04:23;8.63;;;5.73;;
25567;SDS011;13455;51.480;7.594;2023-06-26T00:06:49;7.97;;;5.70;;
25567;SDS011;13455;51.480;7.594;2023-06-26T00:09:14;7.23;;;6.00;;
25567;SDS011;13455;51.480;7.594;2023-06-26T00:11:40;6.88;;;5.75;;
25567;SDS011;13455;51.480;7.594;2023-06-26T00:14:05;7.23;;;5.70;;
25567;SDS011;13455;51.480;7.594;2023-06-26T00:16:31;7.65;;;6.00;;
25567;SDS011;13455;51.480;7.594;2023-06-26T00:18:57;6.70;;;5.82;;
25567;SDS011;13455;51.480;7.594;2023-06-26T00:21:24;9.50;;;6.40;;
25567;SDS011;13455;51.480;7.594;2023-06-26T00:23:50;7.50;;;6.00;;
25567;SDS011;13455;51.480;7.594;2023-06-26T00:26:16;6.87;;;6.17;;
25567;SDS011;13455;51.480;7.594;2023-06-26T00:28:41;8.20;;;6.10;;
25567;SDS011;13455;51.480;7.594;2023-06-26T00:31:07;7.68;;;6.10;;
25567;SDS011;13455;51.480;7.594;2023-06-26T00:33:33;9.23;;;6.07;;
25567;SDS011;13455;51.480;7.594;2023-06-26T00:35:59;9.67;;;6.23;;
25567;SDS011;13455;51.480;7.594;2023-06-26T00:38:24;7.75;;;6.18;;
25567;SDS011;13455;51.480;7.594;2023-06-26T00:40:50;7.77;;;6.50;;
25567;SDS011;13455;51.480;7.594;2023-06-26T00:43:16;10.87;;;6.40;;
25567;SDS011;13455;51.480;7.594;2023-06-26T00:45:41;8.43;;;6.22;;
25567;SDS011;13455;51.480;7.594;2023-06-26T00:48:07;7.70;;;6.23;;
25567;SDS011;13455;51.480;7.594;2023-06-26T00:50:35;8.55;;;6.28;;
25567;SDS011;13455;51.480;7.594;2023-06-26T00:53:01;8.38;;;6.13;;
25567;SDS011;13455;51.480;7.594;2023-06-26T00:55:27;7.55;;;5.93;;
25567;SDS011;13455;51.480;7.594;2023-06-26T00:57:56;7.65;;;6.03;;
25567;SDS011;13455;51.480;7.594;2023-06-26T01:00:22;7.55;;;5.70;;
25567;SDS011;13455;51.480;7.594;2023-06-26T01:02:48;7.13;;;5.60;;
25567;SDS011;13455;51.480;7.594;2023-06-26T01:05:14;8.02;;;6.05;;
25567;SDS011;13455;51.480;7.594;2023-06-26T01:07:45;7.68;;;5.90;;
25567;SDS011;13455;51.480;7.594;2023-06-26T01:10:11;7.78;;;5.88;;
25567;SDS011;13455;51.480;7.594;2023-06-26T01:12:37;10.15;;;5.85;;
25567;SDS011;13455;51.480;7.594;2023-06-26T01:15:04;6.93;;;5.68;;
25567;SDS011;13455;51.480;7.594;2023-06-26T01:17:30;6.13;;;5.18;;
25567;SDS011;13455;51.480;7.594;2023-06-26T01:19:58;8.00;;;5.87;;
25567;SDS011;13455;51.480;7.594;2023-06-26T01:25:39;7.10;;;5.50;;
25567;SDS011;13455;51.480;7.594;2023-06-26T01:27:40;6.80;;;5.43;;
25567;SDS011;13455;51.480;7.594;2023-06-26T01:30:07;7.18;;;5.30;;
25567;SDS011;13455;51.480;7.594;2023-06-26T01:32:33;8.20;;;5.50;;
25567;SDS011;13455;51.480;7.594;2023-06-26T01:35:00;7.90;;;5.60;;
25567;SDS011;13455;51.480;7.594;2023-06-26T01:37:27;7.30;;;5.63;;
25567;SDS011;13455;51.480;7.594;2023-06-26T01:39:53;7.15;;;5.50;;
25567;SDS011;13455;51.480;7.594;2023-06-26T01:42:19;7.75;;;5.38;;
25567;SDS011;13455;51.480;7.594;2023-06-26T01:44:45;7.25;;;5.60;;
25567;SDS011;13455;51.480;7.594;2023-06-26T01:47:12;6.85;;;5.63;;
25567;SDS011;13455;51.480;7.594;2023-06-26T01:55:09;7.47;;;5.60;;
25567;SDS011;13455;51.480;7.594;2023-06-26T01:57:36;6.55;;;5.55;;
25567;SDS011;13455;51.480;7.594;2023-06-26T02:00:04;6.90;;;5.38;;
25567;SDS011;13455;51.480;7.594;2023-06-26T02:02:31;8.48;;;5.50;;
25567;SDS011;13455;51.480;7.594;2023-06-26T02:04:57;6.43;;;5.43;;
25567;SDS011;13455;51.480;7.594;2023-06-26T02:07:23;7.38;;;5.65;;
25567;SDS011;13455;51.480;7.594;2023-06-26T02:09:49;7.97;;;5.70;;
25567;SDS011;13455;51.480;7.594;2023-06-26T02:12:15;8.63;;;5.65;;
25567;SDS011;13455;51.480;7.594;2023-06-26T02:14:41;6.65;;;5.45;;
25567;SDS011;13455;51.480;7.594;2023-06-26T02:17:07;7.10;;;5.38;;
25567;SDS011;13455;51.480;7.594;2023-06-26T02:19:33;7.37;;;5.40;;
25567;SDS011;13455;51.480;7.594;2023-06-26T02:21:59;6.93;;;5.40;;
25567;SDS011;13455;51.480;7.594;2023-06-26T02:24:25;8.37;;;5.57;;
25567;SDS011;13455;51.480;7.594;2023-06-26T02:26:55;6.87;;;5.60;;
25567;SDS011;13455;51.480;7.594;2023-06-26T02:29:21;7.20;;;5.57;;
25567;SDS011;13455;51.480;7.594;2023-06-26T02:31:47;7.35;;;5.70;;
25567;SDS011;13455;51.480;7.594;2023-06-26T02:34:14;6.63;;;5.40;;
25567;SDS011;13455;51.480;7.594;2023-06-26T02:36:40;7.00;;;5.40;;
25567;SDS011;13455;51.480;7.594;2023-06-26T02:39:06;7.57;;;5.13;;
25567;SDS011;13455;51.480;7.594;2023-06-26T02:41:32;7.40;;;5.40;;
25567;SDS011;13455;51.480;7.594;2023-06-26T02:43:58;6.97;;;5.50;;
25567;SDS011;13455;51.480;7.594;2023-06-26T02:46:23;7.47;;;5.38;;
25567;SDS011;13455;51.480;7.594;2023-06-26T02:48:49;7.13;;;5.47;;
25567;SDS011;13455;51.480;7.594;2023-06-26T02:51:15;8.95;;;5.50;;
25567;SDS011;13455;51.480;7.594;2023-06-26T02:53:41;8.57;;;5.38;;
25567;SDS011;13455;51.480;7.594;2023-06-26T02:56:07;8.30;;;5.68;;
25567;SDS011;13455;51.480;7.594;2023-06-26T02:58:33;10.80;;;5.63;;
25567;SDS011;13455;51.480;7.594;2023-06-26T03:00:59;8.27;;;5.22;;
25567;SDS011;13455;51.480;7.594;2023-06-26T03:03:25;7.82;;;5.35;;
25567;SDS011;13455;51.480;7.594;2023-06-26T03:05:51;7.77;;;5.63;;
25567;SDS011;13455;51.480;7.594;2023-06-26T03:08:17;6.80;;;5.17;;
25567;SDS011;13455;51.480;7.594;2023-06-26T03:10:44;7.57;;;5.38;;
25567;SDS011;13455;51.480;7.594;2023-06-26T03:13:10;6.45;;;5.18;;
25567;SDS011;13455;51.480;7.594;2023-06-26T03:15:36;6.97;;;5.40;;
25567;SDS011;13455;51.480;7.594;2023-06-26T03:18:02;7.93;;;5.50;;
25567;SDS011;13455;51.480;7.594;2023-06-26T03:20:28;9.07;;;5.80;;
25567;SDS011;13455;51.480;7.594;2023-06-26T03:22:54;7.13;;;5.38;;
25567;SDS011;13455;51.480;7.594;2023-06-26T03:25:20;6.63;;;5.50;;
25567;SDS011;13455;51.480;7.594;2023-06-26T03:27:46;7.43;;;5.07;;
25567;SDS011;13455;51.480;7.594;2023-06-26T03:30:12;6.78;;;5.70;;
25567;SDS011;13455;51.480;7.594;2023-06-26T03:32:38;7.90;;;5.22;;
25567;SDS011;13455;51.480;7.594;2023-06-26T03:35:04;6.43;;;5.22;;
25567;SDS011;13455;51.480;7.594;2023-06-26T03:37:30;7.78;;;5.13;;
25567;SDS011;13455;51.480;7.594;2023-06-26T03:39:56;7.28;;;5.28;;
25567;SDS011;13455;51.480;7.594;2023-06-26T03:42:22;6.13;;;5.20;;
25567;SDS011;13455;51.480;7.594;2023-06-26T03:44:48;7.20;;;5.45;;
25567;SDS011;13455;51.480;7.594;2023-06-26T03:47:14;6.45;;;5.22;;
25567;SDS011;13455;51.480;7.594;2023-06-26T03:49:40;8.70;;;5.72;;
25567;SDS011;13455;51.480;7.594;2023-06-26T03:52:06;7.37;;;5.40;;
25567;SDS011;13455;51.480;7.594;2023-06-26T03:54:32;7.17;;;5.70;;
25567;SDS011;13455;51.480;7.594;2023-06-26T03:56:58;7.00;;;5.35;;
25567;SDS011;13455;51.480;7.594;2023-06-26T03:59:24;6.93;;;5.35;;
25567;SDS011;13455;51.480;7.594;2023-06-26T04:01:50;8.63;;;5.55;;
25567;SDS011;13455;51.480;7.594;2023-06-26T04:04:17;8.63;;;5.60;;
25567;SDS011;13455;51.480;7.594;2023-06-26T04:06:43;7.95;;;5.45;;
25567;SDS011;13455;51.480;7.594;2023-06-26T04:09:09;8.00;;;5.45;;
25567;SDS011;13455;51.480;7.594;2023-06-26T04:11:35;6.88;;;5.28;;
25567;SDS011;13455;51.480;7.594;2023-06-26T04:14:01;7.30;;;5.45;;
25567;SDS011;13455;51.480;7.594;2023-06-26T04:16:27;6.90;;;5.33;;
25567;SDS011;13455;51.480;7.594;2023-06-26T04:18:53;6.93;;;5.33;;
25567;SDS011;13455;51.480;7.594;2023-06-26T04:21:21;8.18;;;5.70;;
25567;SDS011;13455;51.480;7.594;2023-06-26T04:23:49;6.80;;;5.30;;
25567;SDS011;13455;51.480;7.594;2023-06-26T04:26:15;6.27;;;5.40;;
25567;SDS011;13455;51.480;7.594;2023-06-26T04:28:42;7.90;;;5.47;;
25567;SDS011;13455;51.480;7.594;2023-06-26T04:31:08;8.10;;;5.57;;
25567;SDS011;13455;51.480;7.594;2023-06-26T04:33:35;7.68;;;5.55;;
25567;SDS011;13455;51.480;7.594;2023-06-26T04:36:01;8.50;;;5.38;;
25567;SDS011;13455;51.480;7.594;2023-06-26T04:38:28;9.13;;;5.70;;
25567;SDS011;13455;51.480;7.594;2023-06-26T04:40:55;8.53;;;5.60;;
25567;SDS011;13455;51.480;7.594;2023-06-26T04:43:21;7.88;;;6.07;;
25567;SDS011;13455;51.480;7.594;2023-06-26T04:45:46;7.85;;;5.65;;
25567;SDS011;13455;51.480;7.594;2023-06-26T04:48:12;7.60;;;5.80;;
25567;SDS011;13455;51.480;7.594;2023-06-26T04:50:39;8.13;;;5.57;;
25567;SDS011;13455;51.480;7.594;2023-06-26T04:53:05;7.70;;;5.70;;
25567;SDS011;13455;51.480;7.594;2023-06-26T04:55:31;8.25;;;5.72;;
25567;SDS011;13455;51.480;7.594;2023-06-26T04:57:57;7.97;;;5.30;;
25567;SDS011;13455;51.480;7.594;2023-06-26T05:00:23;7.95;;;5.60;;
25567;SDS011;13455;51.480;7.594;2023-06-26T05:02:50;7.47;;;5.40;;
25567;SDS011;13455;51.480;7.594;2023-06-26T05:05:25;6.80;;;5.38;;
25567;SDS011;13455;51.480;7.594;2023-06-26T05:07:52;7.32;;;5.13;;
25567;SDS011;13455;51.480;7.594;2023-06-26T05:10:18;7.00;;;5.10;;
25567;SDS011;13455;51.480;7.594;2023-06-26T05:12:44;8.38;;;5.20;;
25567;SDS011;13455;51.480;7.594;2023-06-26T05:15:10;8.63;;;5.22;;
25567;SDS011;13455;51.480;7.594;2023-06-26T05:17:36;9.05;;;5.50;;
25567;SDS011;13455;51.480;7.594;2023-06-26T05:20:02;7.03;;;5.38;;
25567;SDS011;13455;51.480;7.594;2023-06-26T05:22:33;9.23;;;5.47;;
25567;SDS011;13455;51.480;7.594;2023-06-26T05:25:00;8.32;;;5.60;;
25567;SDS011;13455;51.480;7.594;2023-06-26T05:27:26;9.75;;;5.53;;
25567;SDS011;13455;51.480;7.594;2023-06-26T05:29:52;8.80;;;5.70;;
25567;SDS011;13455;51.480;7.594;2023-06-26T05:32:19;8.57;;;5.68;;
25567;SDS011;13455;51.480;7.594;2023-06-26T05:34:46;9.00;;;5.85;;
25567;SDS011;13455;51.480;7.594;2023-06-26T05:37:14;8.60;;;5.90;;
25567;SDS011;13455;51.480;7.594;2023-06-26T05:39:43;7.80;;;5.73;;
25567;SDS011;13455;51.480;7.594;2023-06-26T05:42:09;9.17;;;5.90;;
25567;SDS011;13455;51.480;7.594;2023-06-26T05:44:36;9.38;;;6.20;;
25567;SDS011;13455;51.480;7.594;2023-06-26T05:47:02;10.38;;;6.25;;
25567;SDS011;13455;51.480;7.594;2023-06-26T05:49:27;9.90;;;6.20;;
25567;SDS011;13455;51.480;7.594;2023-06-26T05:51:53;10.80;;;5.97;;
25567;SDS011;13455;51.480;7.594;2023-06-26T05:54:20;10.27;;;6.47;;
25567;SDS011;13455;51.480;7.594;2023-06-26T05:56:46;9.13;;;6.00;;
25567;SDS011;13455;51.480;7.594;2023-06-26T05:59:14;8.70;;;5.97;;
25567;SDS011;13455;51.480;7.594;2023-06-26T06:01:40;9.77;;;6.15;;
25567;SDS011;13455;51.480;7.594;2023-06-26T06:04:06;9.07;;;5.95;;
25567;SDS011;13455;51.480;7.594;2023-06-26T06:06:32;8.27;;;6.00;;
25567;SDS011;13455;51.480;7.594;2023-06-26T06:08:58;9.25;;;6.20;;
25567;SDS011;13455;51.480;7.594;2023-06-26T06:11:24;9.88;;;6.05;;
25567;SDS011;13455;51.480;7.594;2023-06-26T06:13:50;10.43;;;6.55;;
25567;SDS011;13455;51.480;7.594;2023-06-26T06:16:16;11.30;;;6.60;;
25567;SDS011;13455;51.480;7.594;2023-06-26T06:18:42;9.50;;;6.10;;
25567;SDS011;13455;51.480;7.594;2023-06-26T06:21:08;10.98;;;6.85;;
25567;SDS011;13455;51.480;7.594;2023-06-26T06:23:34;10.32;;;6.80;;
25567;SDS011;13455;51.480;7.594;2023-06-26T06:26:00;8.98;;;6.70;;
25567;SDS011;13455;51.480;7.594;2023-06-26T06:28:26;10.73;;;6.65;;
25567;SDS011;13455;51.480;7.594;2023-06-26T06:30:52;10.63;;;6.93;;
25567;SDS011;13455;51.480;7.594;2023-06-26T06:33:18;9.77;;;6.93;;
25567;SDS011;13455;51.480;7.594;2023-06-26T06:35:44;11.50;;;7.10;;
25567;SDS011;13455;51.480;7.594;2023-06-26T06:38:10;11.60;;;7.17;;
25567;SDS011;13455;51.480;7.594;2023-06-26T06:40:36;10.57;;;6.45;;
25567;SDS011;13455;51.480;7.594;2023-06-26T06:43:02;9.40;;;6.75;;
25567;SDS011;13455;51.480;7.594;2023-06-26T06:45:28;11.95;;;6.50;;
25567;SDS011;13455;51.480;7.594;2023-06-26T06:47:54;9.50;;;6.47;;
25567;SDS011;13455;51.480;7.594;2023-06-26T06:50:20;11.85;;;6.80;;
25567;SDS011;13455;51.480;7.594;2023-06-26T06:52:46;10.85;;;6.50;;
25567;SDS011;13455;51.480;7.594;2023-06-26T06:55:12;11.60;;;6.30;;
25567;SDS011;13455;51.480;7.594;2023-06-26T06:57:39;10.85;;;6.68;;
25567;SDS011;13455;51.480;7.594;2023-06-26T07:00:06;10.03;;;6.33;;
25567;SDS011;13455;51.480;7.594;2023-06-26T07:02:34;11.53;;;6.60;;
25567;SDS011;13455;51.480;7.594;2023-06-26T07:05:00;9.60;;;6.22;;
25567;SDS011;13455;51.480;7.594;2023-06-26T07:07:28;9.73;;;6.25;;
25567;SDS011;13455;51.480;7.594;2023-06-26T07:09:54;13.18;;;6.40;;
25567;SDS011;13455;51.480;7.594;2023-06-26T07:12:20;9.52;;;5.82;;
25567;SDS011;13455;51.480;7.594;2023-06-26T07:14:46;14.65;;;6.13;;
25567;SDS011;13455;51.480;7.594;2023-06-26T07:17:12;9.13;;;5.70;;
25567;SDS011;13455;51.480;7.594;2023-06-26T07:19:38;9.73;;;5.90;;
25567;SDS011;13455;51.480;7.594;2023-06-26T07:22:03;11.47;;;5.40;;
25567;SDS011;13455;51.480;7.594;2023-06-26T07:24:29;11.93;;;5.88;;
25567;SDS011;13455;51.480;7.594;2023-06-26T07:26:55;10.23;;;5.40;;
25567;SDS011;13455;51.480;7.594;2023-06-26T07:29:20;10.00;;;5.43;;
25567;SDS011;13455;51.480;7.594;2023-06-26T07:31:46;8.68;;;5.30;;
25567;SDS011;13455;51.480;7.594;2023-06-26T07:34:12;10.53;;;5.63;;
25567;SDS011;13455;51.480;7.594;2023-06-26T07:36:38;9.82;;;5.90;;
25567;SDS011;13455;51.480;7.594;2023-06-26T07:39:04;11.38;;;5.53;;
25567;SDS011;13455;51.480;7.594;2023-06-26T07:41:29;10.90;;;5.70;;
25567;SDS011;13455;51.480;7.594;2023-06-26T07:43:56;9.40;;;5.50;;
25567;SDS011;13455;51.480;7.594;2023-06-26T07:46:23;12.20;;;5.88;;
25567;SDS011;13455;51.480;7.594;2023-06-26T07:48:49;12.10;;;5.50;;
25567;SDS011;13455;51.480;7.594;2023-06-26T07:51:14;10.63;;;5.43;;
25567;SDS011;13455;51.480;7.594;2023-06-26T07:53:40;12.32;;;5.95;;
25567;SDS011;13455;51.480;7.594;2023-06-26T07:56:06;10.57;;;5.70;;
25567;SDS011;13455;51.480;7.594;2023-06-26T07:58:32;11.00;;;5.80;;
25567;SDS011;13455;51.480;7.594;2023-06-26T08:00:57;12.43;;;5.80;;
25567;SDS011;13455;51.480;7.594;2023-06-26T08:03:23;10.87;;;5.80;;
25567;SDS011;13455;51.480;7.594;2023-06-26T08:05:49;14.35;;;5.90;;
25567;SDS011;13455;51.480;7.594;2023-06-26T08:08:15;12.38;;;5.70;;
25567;SDS011;13455;51.480;7.594;2023-06-26T08:10:40;14.10;;;5.83;;
25567;SDS011;13455;51.480;7.594;2023-06-26T08:13:06;12.13;;;5.97;;
25567;SDS011;13455;51.480;7.594;2023-06-26T08:15:32;12.43;;;6.30;;
25567;SDS011;13455;51.480;7.594;2023-06-26T08:17:58;14.20;;;6.55;;
25567;SDS011;13455;51.480;7.594;2023-06-26T08:20:23;11.80;;;6.00;;
25567;SDS011;13455;51.480;7.594;2023-06-26T08:22:49;11.50;;;5.85;;
25567;SDS011;13455;51.480;7.594;2023-06-26T08:25:17;10.57;;;5.82;;
25567;SDS011;13455;51.480;7.594;2023-06-26T08:27:43;13.83;;;6.10;;
25567;SDS011;13455;51.480;7.594;2023-06-26T08:30:08;11.07;;;5.93;;
25567;SDS011;13455;51.480;7.594;2023-06-26T08:32:35;11.23;;;6.47;;
25567;SDS011;13455;51.480;7.594;2023-06-26T08:35:01;13.55;;;6.38;;
25567;SDS011;13455;51.480;7.594;2023-06-26T08:37:27;10.68;;;6.28;;
25567;SDS011;13455;51.480;7.594;2023-06-26T08:39:53;10.50;;;6.17;;
25567;SDS011;13455;51.480;7.594;2023-06-26T08:42:18;12.55;;;6.60;;
25567;SDS011;13455;51.480;7.594;2023-06-26T08:44:44;12.27;;;6.80;;
25567;SDS011;13455;51.480;7.594;2023-06-26T08:47:11;12.87;;;6.50;;
25567;SDS011;13455;51.480;7.594;2023-06-26T08:49:43;10.65;;;6.40;;
25567;SDS011;13455;51.480;7.594;2023-06-26T08:52:23;11.73;;;6.97;;
25567;SDS011;13455;51.480;7.594;2023-06-26T08:54:58;11.70;;;6.90;;
25567;SDS011;13455;51.480;7.594;2023-06-26T08:57:25;11.30;;;6.75;;
25567;SDS011;13455;51.480;7.594;2023-06-26T08:59:52;12.40;;;6.63;;
25567;SDS011;13455;51.480;7.594;2023-06-26T09:02:19;12.07;;;6.55;;
25567;SDS011;13455;51.480;7.594;2023-06-26T09:04:47;10.77;;;6.30;;
25567;SDS011;13455;51.480;7.594;2023-06-26T09:07:16;9.82;;;6.60;;
25567;SDS011;13455;51.480;7.594;2023-06-26T09:09:43;14.98;;;6.82;;
25567;SDS011;13455;51.480;7.594;2023-06-26T09:12:09;11.90;;;6.22;;
25567;SDS011;13455;51.480;7.594;2023-06-26T09:14:35;15.03;;;6.70;;
25567;SDS011;13455;51.480;7.594;2023-06-26T09:17:02;12.60;;;7.30;;
25567;SDS011;13455;51.480;7.594;2023-06-26T09:19:28;12.20;;;7.90;;
25567;SDS011;13455;51.480;7.594;2023-06-26T09:21:53;14.55;;;8.70;;
25567;SDS011;13455;51.480;7.594;2023-06-26T09:24:20;13.68;;;8.70;;
25567;SDS011;13455;51.480;7.594;2023-06-26T09:26:47;13.30;;;7.55;;
25567;SDS011;13455;51.480;7.594;2023-06-26T09:29:13;13.18;;;7.75;;
25567;SDS011;13455;51.480;7.594;2023-06-26T09:31:40;14.82;;;8.30;;
25567;SDS011;13455;51.480;7.594;2023-06-26T09:34:05;13.43;;;8.02;;
25567;SDS011;13455;51.480;7.594;2023-06-26T09:36:32;14.77;;;10.50;;
25567;SDS011;13455;51.480;7.594;2023-06-26T09:39:02;15.43;;;9.30;;
25567;SDS011;13455;51.480;7.594;2023-06-26T09:41:29;15.38;;;8.70;;
25567;SDS011;13455;51.480;7.594;2023-06-26T09:43:57;17.77;;;8.23;;
25567;SDS011;13455;51.480;7.594;2023-06-26T09:46:28;15.70;;;8.33;;
25567;SDS011;13455;51.480;7.594;2023-06-26T09:49:12;16.92;;;9.50;;
25567;SDS011;13455;51.480;7.594;2023-06-26T09:51:39;14.50;;;8.80;;
25567;SDS011;13455;51.480;7.594;2023-06-26T09:54:05;16.63;;;8.35;;
25567;SDS011;13455;51.480;7.594;2023-06-26T09:56:32;14.02;;;8.60;;
25567;SDS011;13455;51.480;7.594;2023-06-26T09:58:59;15.83;;;8.50;;
25567;SDS011;13455;51.480;7.594;2023-06-26T10:01:29;13.23;;;8.40;;
25567;SDS011;13455;51.480;7.594;2023-06-26T10:03:56;14.80;;;8.48;;
25567;SDS011;13455;51.480;7.594;2023-06-26T10:06:24;16.08;;;8.30;;
25567;SDS011;13455;51.480;7.594;2023-06-26T10:08:58;12.57;;;7.18;;
25567;SDS011;13455;51.480;7.594;2023-06-26T10:11:25;12.00;;;6.50;;
25567;SDS011;13455;51.480;7.594;2023-06-26T10:13:57;11.00;;;5.82;;
25567;SDS011;13455;51.480;7.594;2023-06-26T10:16:25;10.70;;;6.07;;
25567;SDS011;13455;51.480;7.594;2023-06-26T10:18:54;14.23;;;6.20;;
25567;SDS011;13455;51.480;7.594;2023-06-26T10:21:24;11.10;;;6.10;;
25567;SDS011;13455;51.480;7.594;2023-06-26T10:23:53;11.18;;;6.32;;
25567;SDS011;13455;51.480;7.594;2023-06-26T10:26:20;14.02;;;5.50;;
25567;SDS011;13455;51.480;7.594;2023-06-26T10:28:47;8.65;;;4.68;;
25567;SDS011;13455;51.480;7.594;2023-06-26T10:31:16;10.23;;;4.70;;
25567;SDS011;13455;51.480;7.594;2023-06-26T10:33:49;8.52;;;4.40;;
25567;SDS011;13455;51.480;7.594;2023-06-26T10:36:27;10.77;;;4.20;;
25567;SDS011;13455;51.480;7.594;2023-06-26T10:38:56;9.75;;;4.40;;
25567;SDS011;13455;51.480;7.594;2023-06-26T10:41:23;9.93;;;4.45;;
25567;SDS011;13455;51.480;7.594;2023-06-26T10:44:23;10.00;;;4.20;;
25567;SDS011;13455;51.480;7.594;2023-06-26T10:49:21;10.05;;;4.30;;
25567;SDS011;13455;51.480;7.594;2023-06-26T10:51:51;12.40;;;4.82;;
25567;SDS011;13455;51.480;7.594;2023-06-26T10:54:19;10.98;;;4.70;;
25567;SDS011;13455;51.480;7.594;2023-06-26T11:01:44;10.07;;;4.15;;
25567;SDS011;13455;51.480;7.594;2023-06-26T11:04:12;11.52;;;4.50;;
25567;SDS011;13455;51.480;7.594;2023-06-26T11:06:40;11.47;;;4.50;;
25567;SDS011;13455;51.480;7.594;2023-06-26T11:14:17;9.23;;;4.00;;
25567;SDS011;13455;51.480;7.594;2023-06-26T11:16:44;9.32;;;4.20;;
25567;SDS011;13455;51.480;7.594;2023-06-26T11:19:09;10.30;;;3.97;;
25567;SDS011;13455;51.480;7.594;2023-06-26T11:21:39;7.68;;;3.50;;
25567;SDS011;13455;51.480;7.594;2023-06-26T11:24:08;7.95;;;3.10;;
25567;SDS011;13455;51.480;7.594;2023-06-26T11:26:40;7.03;;;2.83;;
25567;SDS011;13455;51.480;7.594;2023-06-26T11:29:07;8.05;;;2.65;;
25567;SDS011;13455;51.480;7.594;2023-06-26T11:31:34;8.00;;;2.70;;
25567;SDS011;13455;51.480;7.594;2023-06-26T11:34:05;6.05;;;2.70;;
25567;SDS011;13455;51.480;7.594;2023-06-26T11:36:36;8.43;;;3.15;;
25567;SDS011;13455;51.480;7.594;2023-06-26T11:39:04;7.40;;;2.80;;
25567;SDS011;13455;51.480;7.594;2023-06-26T11:41:34;7.63;;;3.00;;
25567;SDS011;13455;51.480;7.594;2023-06-26T11:46:29;7.55;;;2.70;;
25567;SDS011;13455;51.480;7.594;2023-06-26T11:48:56;8.90;;;2.80;;
25567;SDS011;13455;51.480;7.594;2023-06-26T11:51:21;9.43;;;2.90;;
25567;SDS011;13455;51.480;7.594;2023-06-26T11:53:47;7.95;;;2.80;;
25567;SDS011;13455;51.480;7.594;2023-06-26T11:56:14;9.03;;;2.80;;
25567;SDS011;13455;51.480;7.594;2023-06-26T11:59:00;8.77;;;2.73;;
25567;SDS011;13455;51.480;7.594;2023-06-26T12:01:26;7.63;;;2.90;;
25567;SDS011;13455;51.480;7.594;2023-06-26T12:04:04;7.55;;;2.80;;
25567;SDS011;13455;51.480;7.594;2023-06-26T12:06:31;8.00;;;3.30;;
25567;SDS011;13455;51.480;7.594;2023-06-26T12:08:59;7.43;;;3.00;;
25567;SDS011;13455;51.480;7.594;2023-06-26T12:11:30;5.95;;;2.70;;
25567;SDS011;13455;51.480;7.594;2023-06-26T12:13:57;7.63;;;2.95;;
25567;SDS011;13455;51.480;7.594;2023-06-26T12:16:24;5.68;;;2.47;;
25567;SDS011;13455;51.480;7.594;2023-06-26T12:18:50;5.20;;;2.70;;
25567;SDS011;13455;51.480;7.594;2023-06-26T12:24:01;5.60;;;2.28;;
25567;SDS011;13455;51.480;7.594;2023-06-26T12:26:27;6.65;;;2.20;;
25567;SDS011;13455;51.480;7.594;2023-06-26T12:28:54;5.88;;;2.20;;
25567;SDS011;13455;51.480;7.594;2023-06-26T12:31:28;4.78;;;2.10;;
25567;SDS011;13455;51.480;7.594;2023-06-26T12:33:54;4.65;;;2.00;;
25567;SDS011;13455;51.480;7.594;2023-06-26T12:36:20;6.33;;;2.37;;
25567;SDS011;13455;51.480;7.594;2023-06-26T12:38:45;3.43;;;1.87;;
25567;SDS011;13455;51.480;7.594;2023-06-26T12:41:13;5.28;;;2.00;;
25567;SDS011;13455;51.480;7.594;2023-06-26T12:43:40;5.53;;;1.90;;
25567;SDS011;13455;51.480;7.594;2023-06-26T12:46:06;4.40;;;1.90;;
25567;SDS011;13455;51.480;7.594;2023-06-26T12:48:42;6.43;;;1.90;;
25567;SDS011;13455;51.480;7.594;2023-06-26T12:51:11;5.75;;;1.65;;
25567;SDS011;13455;51.480;7.594;2023-06-26T12:53:40;4.20;;;1.70;;
25567;SDS011;13455;51.480;7.594;2023-06-26T12:56:06;3.87;;;1.87;;
25567;SDS011;13455;51.480;7.594;2023-06-26T12:58:35;5.40;;;1.60;;
25567;SDS011;13455;51.480;7.594;2023-06-26T13:01:05;4.60;;;1.58;;
25567;SDS011;13455;51.480;7.594;2023-06-26T13:03:42;4.32;;;1.55;;
25567;SDS011;13455;51.480;7.594;2023-06-26T13:06:09;6.45;;;1.63;;
25567;SDS011;13455;51.480;7.594;2023-06-26T13:08:35;5.10;;;1.50;;
25567;SDS011;13455;51.480;7.594;2023-06-26T13:11:02;6.03;;;1.40;;
25567;SDS011;13455;51.480;7.594;2023-06-26T13:13:28;7.93;;;1.63;;
25567;SDS011;13455;51.480;7.594;2023-06-26T13:15:54;6.60;;;1.27;;
25567;SDS011;13455;51.480;7.594;2023-06-26T13:18:20;4.20;;;1.53;;
25567;SDS011;13455;51.480;7.594;2023-06-26T13:20:46;6.10;;;1.70;;
25567;SDS011;13455;51.480;7.594;2023-06-26T13:23:12;5.55;;;1.23;;
25567;SDS011;13455;51.480;7.594;2023-06-26T13:25:38;4.30;;;1.00;;
25567;SDS011;13455;51.480;7.594;2023-06-26T13:28:03;4.78;;;1.17;;
25567;SDS011;13455;51.480;7.594;2023-06-26T13:30:29;2.93;;;1.13;;
25567;SDS011;13455;51.480;7.594;2023-06-26T13:32:55;4.60;;;1.17;;
25567;SDS011;13455;51.480;7.594;2023-06-26T13:35:21;4.30;;;1.10;;
25567;SDS011;13455;51.480;7.594;2023-06-26T13:37:46;5.67;;;1.30;;
25567;SDS011;13455;51.480;7.594;2023-06-26T13:40:12;4.18;;;1.10;;
25567;SDS011;13455;51.480;7.594;2023-06-26T13:42:38;3.95;;;1.10;;
25567;SDS011;13455;51.480;7.594;2023-06-26T13:45:04;3.22;;;1.23;;
25567;SDS011;13455;51.480;7.594;2023-06-26T13:47:30;3.05;;;1.02;;
25567;SDS011;13455;51.480;7.594;2023-06-26T13:49:56;3.57;;;1.13;;
25567;SDS011;13455;51.480;7.594;2023-06-26T13:52:21;4.38;;;1.20;;
25567;SDS011;13455;51.480;7.594;2023-06-26T13:54:47;3.58;;;1.20;;
25567;SDS011;13455;51.480;7.594;2023-06-26T13:57:13;3.63;;;1.38;;
25567;SDS011;13455;51.480;7.594;2023-06-26T13:59:39;5.10;;;1.20;;
25567;SDS011;13455;51.480;7.594;2023-06-26T14:02:06;3.72;;;1.20;;
25567;SDS011;13455;51.480;7.594;2023-06-26T14:04:32;5.53;;;1.20;;
25567;SDS011;13455;51.480;7.594;2023-06-26T14:06:58;4.97;;;1.20;;
25567;SDS011;13455;51.480;7.594;2023-06-26T14:09:24;3.28;;;1.30;;
25567;SDS011;13455;51.480;7.594;2023-06-26T14:11:50;4.65;;;1.20;;
25567;SDS011;13455;51.480;7.594;2023-06-26T14:14:16;3.90;;;1.10;;
25567;SDS011;13455;51.480;7.594;2023-06-26T14:16:42;3.53;;;0.90;;
25567;SDS011;13455;51.480;7.594;2023-06-26T14:19:09;4.80;;;1.02;;
25567;SDS011;13455;51.480;7.594;2023-06-26T14:21:40;4.63;;;1.08;;
25567;SDS011;13455;51.480;7.594;2023-06-26T14:24:06;3.72;;;1.08;;
25567;SDS011;13455;51.480;7.594;2023-06-26T14:26:31;4.13;;;1.20;;
25567;SDS011;13455;51.480;7.594;2023-06-26T14:28:58;4.25;;;1.00;;
25567;SDS011;13455;51.480;7.594;2023-06-26T14:31:27;8.75;;;1.15;;
25567;SDS011;13455;51.480;7.594;2023-06-26T14:33:53;3.75;;;0.95;;
25567;SDS011;13455;51.480;7.594;2023-06-26T14:36:19;4.95;;;1.15;;
25567;SDS011;13455;51.480;7.594;2023-06-26T14:38:45;6.13;;;1.10;;
25567;SDS011;13455;51.480;7.594;2023-06-26T14:41:13;3.72;;;1.10;;
25567;SDS011;13455;51.480;7.594;2023-06-26T14:43:39;3.67;;;1.00;;
25567;SDS011;13455;51.480;7.594;2023-06-26T14:46:05;6.35;;;1.10;;
25567;SDS011;13455;51.480;7.594;2023-06-26T14:48:30;3.77;;;1.30;;
25567;SDS011;13455;51.480;7.594;2023-06-26T14:50:56;3.90;;;1.10;;
25567;SDS011;13455;51.480;7.594;2023-06-26T14:53:22;2.70;;;1.10;;
25567;SDS011;13455;51.480;7.594;2023-06-26T14:55:47;5.53;;;1.10;;
25567;SDS011;13455;51.480;7.594;2023-06-26T14:58:13;2.42;;;0.95;;
25567;SDS011;13455;51.480;7.594;2023-06-26T15:00:38;3.10;;;0.90;;
25567;SDS011;13455;51.480;7.594;2023-06-26T15:03:04;3.50;;;1.00;;
25567;SDS011;13455;51.480;7.594;2023-06-26T15:05:29;2.87;;;1.00;;
25567;SDS011;13455;51.480;7.594;2023-06-26T15:07:55;3.30;;;0.90;;